sensor_id;sensor_type;location;lat;lon;timestamp;temperature;humidity
2783;DHT22;1399;47.072;15.452;2022-12-01T00:00:59;10.00;59.90
2783;DHT22;1399;47.072;15.452;2022-12-01T00:03:25;10.00;59.90
2783;DHT22;1399;47.072;15.452;2022-12-01T00:05:59;9.90;61.00
2783;DHT22;1399;47.072;15.452;2022-12-01T00:08:25;10.00;60.00
2783;DHT22;1399;47.072;15.452;2022-12-01T00:10:52;10.00;60.00
2783;DHT22;1399;47.072;15.452;2022-12-01T00:13:18;10.00;59.90
2783;DHT22;1399;47.072;15.452;2022-12-01T00:15:44;10.00;59.90
2783;DHT22;1399;47.072;15.452;2022-12-01T00:18:09;10.00;60.00
2783;DHT22;1399;47.072;15.452;2022-12-01T00:20:36;10.00;60.00
2783;DHT22;1399;47.072;15.452;2022-12-01T00:23:02;10.00;60.00
2783;DHT22;1399;47.072;15.452;2022-12-01T00:25:28;10.00;60.00
2783;DHT22;1399;47.072;15.452;2022-12-01T00:27:54;10.00;61.00
2783;DHT22;1399;47.072;15.452;2022-12-01T00:30:21;10.00;60.90
2783;DHT22;1399;47.072;15.452;2022-12-01T00:32:49;10.00;60.00
2783;DHT22;1399;47.072;15.452;2022-12-01T00:35:15;10.00;59.90
2783;DHT22;1399;47.072;15.452;2022-12-01T00:37:41;10.00;60.00
2783;DHT22;1399;47.072;15.452;2022-12-01T00:40:08;10.00;59.90
2783;DHT22;1399;47.072;15.452;2022-12-01T00:42:34;10.00;60.00
2783;DHT22;1399;47.072;15.452;2022-12-01T00:45:00;10.00;60.00
2783;DHT22;1399;47.072;15.452;2022-12-01T00:47:26;10.00;60.00
2783;DHT22;1399;47.072;15.452;2022-12-01T00:49:51;10.00;60.00
2783;DHT22;1399;47.072;15.452;2022-12-01T00:52:18;10.00;60.00
2783;DHT22;1399;47.072;15.452;2022-12-01T00:54:44;10.00;60.10
2783;DHT22;1399;47.072;15.452;2022-12-01T00:57:11;10.00;60.10
2783;DHT22;1399;47.072;15.452;2022-12-01T00:59:36;10.00;60.10
2783;DHT22;1399;47.072;15.452;2022-12-01T01:02:04;10.00;60.20
2783;DHT22;1399;47.072;15.452;2022-12-01T01:04:31;10.00;60.10
2783;DHT22;1399;47.072;15.452;2022-12-01T01:06:59;10.00;60.20
2783;DHT22;1399;47.072;15.452;2022-12-01T01:09:24;10.00;60.30
2783;DHT22;1399;47.072;15.452;2022-12-01T01:11:51;10.00;60.20
2783;DHT22;1399;47.072;15.452;2022-12-01T01:14:17;10.00;60.20
2783;DHT22;1399;47.072;15.452;2022-12-01T01:16:43;10.00;60.20
2783;DHT22;1399;47.072;15.452;2022-12-01T01:19:09;10.00;60.30
2783;DHT22;1399;47.072;15.452;2022-12-01T01:21:35;10.00;60.30
2783;DHT22;1399;47.072;15.452;2022-12-01T01:24:01;10.00;60.10
2783;DHT22;1399;47.072;15.452;2022-12-01T01:26:29;10.00;60.20
2783;DHT22;1399;47.072;15.452;2022-12-01T01:28:57;10.00;60.20
2783;DHT22;1399;47.072;15.452;2022-12-01T01:31:25;10.00;60.20
2783;DHT22;1399;47.072;15.452;2022-12-01T01:33:51;10.00;60.20
2783;DHT22;1399;47.072;15.452;2022-12-01T01:36:18;10.00;60.10
2783;DHT22;1399;47.072;15.452;2022-12-01T01:38:44;10.00;60.10
2783;DHT22;1399;47.072;15.452;2022-12-01T01:41:11;10.00;60.10
2783;DHT22;1399;47.072;15.452;2022-12-01T01:43:53;10.00;60.10
2783;DHT22;1399;47.072;15.452;2022-12-01T01:46:31;10.00;60.10
2783;DHT22;1399;47.072;15.452;2022-12-01T01:49:02;10.00;60.00
2783;DHT22;1399;47.072;15.452;2022-12-01T01:51:59;10.00;60.10
2783;DHT22;1399;47.072;15.452;2022-12-01T01:54:32;10.00;60.20
2783;DHT22;1399;47.072;15.452;2022-12-01T01:56:59;10.00;60.20
2783;DHT22;1399;47.072;15.452;2022-12-01T01:59:41;10.00;60.40
2783;DHT22;1399;47.072;15.452;2022-12-01T02:02:10;10.00;60.40
2783;DHT22;1399;47.072;15.452;2022-12-01T02:04:47;10.00;60.40
2783;DHT22;1399;47.072;15.452;2022-12-01T02:07:17;10.00;60.40
2783;DHT22;1399;47.072;15.452;2022-12-01T02:09:44;10.00;61.30
2783;DHT22;1399;47.072;15.452;2022-12-01T02:26:15;10.00;60.60
2783;DHT22;1399;47.072;15.452;2022-12-01T02:34:22;10.00;60.70
2783;DHT22;1399;47.072;15.452;2022-12-01T02:36:59;10.00;60.70
2783;DHT22;1399;47.072;15.452;2022-12-01T02:39:36;10.00;60.60
2783;DHT22;1399;47.072;15.452;2022-12-01T02:42:08;10.00;60.60
2783;DHT22;1399;47.072;15.452;2022-12-01T02:44:42;10.00;60.50
2783;DHT22;1399;47.072;15.452;2022-12-01T02:47:16;10.00;60.50
2783;DHT22;1399;47.072;15.452;2022-12-01T02:49:46;10.00;60.40
2783;DHT22;1399;47.072;15.452;2022-12-01T02:52:14;9.90;61.50
2783;DHT22;1399;47.072;15.452;2022-12-01T02:54:42;10.00;60.40
2783;DHT22;1399;47.072;15.452;2022-12-01T02:57:12;10.00;60.30
2783;DHT22;1399;47.072;15.452;2022-12-01T02:59:43;10.00;60.20
2783;DHT22;1399;47.072;15.452;2022-12-01T03:05:05;10.00;60.10
2783;DHT22;1399;47.072;15.452;2022-12-01T03:16:33;9.90;60.80
2783;DHT22;1399;47.072;15.452;2022-12-01T03:19:38;9.90;60.70
2783;DHT22;1399;47.072;15.452;2022-12-01T03:22:10;9.90;60.80
2783;DHT22;1399;47.072;15.452;2022-12-01T03:24:39;9.90;60.80
2783;DHT22;1399;47.072;15.452;2022-12-01T03:27:10;9.90;60.80
2783;DHT22;1399;47.072;15.452;2022-12-01T03:29:44;9.80;60.60
2783;DHT22;1399;47.072;15.452;2022-12-01T03:32:19;9.80;60.60
2783;DHT22;1399;47.072;15.452;2022-12-01T03:35:03;9.80;60.50
2783;DHT22;1399;47.072;15.452;2022-12-01T03:37:58;9.80;60.40
2783;DHT22;1399;47.072;15.452;2022-12-01T03:40:27;9.80;60.50
2783;DHT22;1399;47.072;15.452;2022-12-01T03:43:02;9.80;60.50
2783;DHT22;1399;47.072;15.452;2022-12-01T03:45:39;9.80;60.40
2783;DHT22;1399;47.072;15.452;2022-12-01T03:48:06;9.80;60.40
2783;DHT22;1399;47.072;15.452;2022-12-01T03:50:44;9.80;60.30
2783;DHT22;1399;47.072;15.452;2022-12-01T03:53:19;9.80;60.20
2783;DHT22;1399;47.072;15.452;2022-12-01T03:55:51;9.80;60.30
2783;DHT22;1399;47.072;15.452;2022-12-01T03:58:27;9.80;60.40
2783;DHT22;1399;47.072;15.452;2022-12-01T04:00:55;9.80;60.50
2783;DHT22;1399;47.072;15.452;2022-12-01T04:03:25;9.80;60.60
2783;DHT22;1399;47.072;15.452;2022-12-01T04:05:51;9.80;60.60
2783;DHT22;1399;47.072;15.452;2022-12-01T04:08:17;9.80;60.70
2783;DHT22;1399;47.072;15.452;2022-12-01T04:10:43;9.80;60.80
2783;DHT22;1399;47.072;15.452;2022-12-01T04:13:09;9.80;60.80
2783;DHT22;1399;47.072;15.452;2022-12-01T04:15:48;9.80;60.90
2783;DHT22;1399;47.072;15.452;2022-12-01T04:18:15;9.80;61.00
2783;DHT22;1399;47.072;15.452;2022-12-01T04:20:45;9.80;60.90
2783;DHT22;1399;47.072;15.452;2022-12-01T04:23:11;9.80;61.00
2783;DHT22;1399;47.072;15.452;2022-12-01T04:26:01;9.90;61.00
2783;DHT22;1399;47.072;15.452;2022-12-01T04:28:27;9.80;60.90
2783;DHT22;1399;47.072;15.452;2022-12-01T04:30:53;9.90;60.90
2783;DHT22;1399;47.072;15.452;2022-12-01T04:33:19;9.90;60.80
2783;DHT22;1399;47.072;15.452;2022-12-01T04:35:45;9.80;60.80
2783;DHT22;1399;47.072;15.452;2022-12-01T04:38:11;9.90;60.90
2783;DHT22;1399;47.072;15.452;2022-12-01T04:40:39;9.90;61.00
2783;DHT22;1399;47.072;15.452;2022-12-01T04:43:05;9.90;61.00
2783;DHT22;1399;47.072;15.452;2022-12-01T04:45:31;9.90;61.00
2783;DHT22;1399;47.072;15.452;2022-12-01T04:47:56;9.80;60.90
2783;DHT22;1399;47.072;15.452;2022-12-01T04:50:22;9.90;61.00
2783;DHT22;1399;47.072;15.452;2022-12-01T04:52:48;9.80;60.80
2783;DHT22;1399;47.072;15.452;2022-12-01T04:55:13;9.90;60.90
2783;DHT22;1399;47.072;15.452;2022-12-01T04:57:40;9.80;60.90
2783;DHT22;1399;47.072;15.452;2022-12-01T05:00:06;9.90;61.00
2783;DHT22;1399;47.072;15.452;2022-12-01T05:02:38;9.90;61.00
2783;DHT22;1399;47.072;15.452;2022-12-01T05:05:09;9.80;60.80
2783;DHT22;1399;47.072;15.452;2022-12-01T05:07:34;9.80;60.70
2783;DHT22;1399;47.072;15.452;2022-12-01T05:10:00;9.80;60.60
2783;DHT22;1399;47.072;15.452;2022-12-01T05:12:26;9.80;60.50
2783;DHT22;1399;47.072;15.452;2022-12-01T05:14:51;9.80;60.40
2783;DHT22;1399;47.072;15.452;2022-12-01T05:17:17;9.80;60.50
2783;DHT22;1399;47.072;15.452;2022-12-01T05:19:43;9.80;60.50
2783;DHT22;1399;47.072;15.452;2022-12-01T05:22:27;9.80;60.50
2783;DHT22;1399;47.072;15.452;2022-12-01T05:24:52;9.80;60.40
2783;DHT22;1399;47.072;15.452;2022-12-01T05:27:18;9.80;60.40
2783;DHT22;1399;47.072;15.452;2022-12-01T05:29:44;9.80;60.40
2783;DHT22;1399;47.072;15.452;2022-12-01T05:32:10;9.80;60.40
2783;DHT22;1399;47.072;15.452;2022-12-01T05:34:36;9.80;60.50
2783;DHT22;1399;47.072;15.452;2022-12-01T05:37:01;9.80;60.40
2783;DHT22;1399;47.072;15.452;2022-12-01T05:39:27;9.80;60.40
2783;DHT22;1399;47.072;15.452;2022-12-01T05:41:53;9.80;60.40
2783;DHT22;1399;47.072;15.452;2022-12-01T05:44:19;9.80;60.40
2783;DHT22;1399;47.072;15.452;2022-12-01T05:46:44;9.80;60.50
2783;DHT22;1399;47.072;15.452;2022-12-01T05:49:10;9.80;60.50
2783;DHT22;1399;47.072;15.452;2022-12-01T05:51:36;9.80;60.50
2783;DHT22;1399;47.072;15.452;2022-12-01T05:54:02;9.80;60.30
2783;DHT22;1399;47.072;15.452;2022-12-01T05:56:28;9.80;60.20
2783;DHT22;1399;47.072;15.452;2022-12-01T05:58:54;9.80;60.20
2783;DHT22;1399;47.072;15.452;2022-12-01T06:01:20;9.80;60.30
2783;DHT22;1399;47.072;15.452;2022-12-01T06:03:46;9.80;60.20
2783;DHT22;1399;47.072;15.452;2022-12-01T06:06:12;9.80;60.00
2783;DHT22;1399;47.072;15.452;2022-12-01T06:08:38;9.80;60.00
2783;DHT22;1399;47.072;15.452;2022-12-01T06:11:04;9.80;60.00
2783;DHT22;1399;47.072;15.452;2022-12-01T06:13:30;9.80;60.00
2783;DHT22;1399;47.072;15.452;2022-12-01T06:16:01;9.80;59.90
2783;DHT22;1399;47.072;15.452;2022-12-01T06:18:32;9.80;59.90
2783;DHT22;1399;47.072;15.452;2022-12-01T06:20:58;9.80;59.90
2783;DHT22;1399;47.072;15.452;2022-12-01T06:23:24;9.80;59.90
2783;DHT22;1399;47.072;15.452;2022-12-01T06:25:50;9.80;60.80
2783;DHT22;1399;47.072;15.452;2022-12-01T06:28:16;9.80;60.10
2783;DHT22;1399;47.072;15.452;2022-12-01T06:30:42;9.80;60.10
2783;DHT22;1399;47.072;15.452;2022-12-01T06:33:07;9.80;60.10
2783;DHT22;1399;47.072;15.452;2022-12-01T06:35:34;9.80;60.20
2783;DHT22;1399;47.072;15.452;2022-12-01T06:38:00;9.80;60.20
2783;DHT22;1399;47.072;15.452;2022-12-01T06:40:26;9.80;60.00
2783;DHT22;1399;47.072;15.452;2022-12-01T06:42:52;9.80;60.00
2783;DHT22;1399;47.072;15.452;2022-12-01T06:45:18;9.80;60.00
2783;DHT22;1399;47.072;15.452;2022-12-01T06:47:44;9.80;60.00
2783;DHT22;1399;47.072;15.452;2022-12-01T06:50:12;9.80;60.10
2783;DHT22;1399;47.072;15.452;2022-12-01T06:52:38;9.80;60.20
2783;DHT22;1399;47.072;15.452;2022-12-01T06:55:05;9.80;60.20
2783;DHT22;1399;47.072;15.452;2022-12-01T06:57:31;9.80;60.20
2783;DHT22;1399;47.072;15.452;2022-12-01T06:59:57;9.80;60.20
2783;DHT22;1399;47.072;15.452;2022-12-01T07:02:22;9.80;60.20
2783;DHT22;1399;47.072;15.452;2022-12-01T07:04:48;9.80;60.20
2783;DHT22;1399;47.072;15.452;2022-12-01T07:07:14;9.80;60.10
2783;DHT22;1399;47.072;15.452;2022-12-01T07:09:40;9.80;60.10
2783;DHT22;1399;47.072;15.452;2022-12-01T07:12:06;9.80;60.10
2783;DHT22;1399;47.072;15.452;2022-12-01T07:14:32;9.80;60.10
2783;DHT22;1399;47.072;15.452;2022-12-01T07:16:58;9.90;60.10
2783;DHT22;1399;47.072;15.452;2022-12-01T07:19:24;9.90;60.00
2783;DHT22;1399;47.072;15.452;2022-12-01T07:21:50;9.90;60.10
2783;DHT22;1399;47.072;15.452;2022-12-01T07:24:15;9.90;59.90
2783;DHT22;1399;47.072;15.452;2022-12-01T07:26:41;9.90;60.00
2783;DHT22;1399;47.072;15.452;2022-12-01T07:29:08;9.90;60.00
2783;DHT22;1399;47.072;15.452;2022-12-01T07:31:34;9.90;59.90
2783;DHT22;1399;47.072;15.452;2022-12-01T07:34:01;9.90;60.10
2783;DHT22;1399;47.072;15.452;2022-12-01T07:36:27;9.90;60.00
2783;DHT22;1399;47.072;15.452;2022-12-01T07:38:52;9.90;59.90
2783;DHT22;1399;47.072;15.452;2022-12-01T07:41:18;9.90;60.00
2783;DHT22;1399;47.072;15.452;2022-12-01T07:43:45;9.90;60.00
2783;DHT22;1399;47.072;15.452;2022-12-01T07:46:15;10.00;59.20
2783;DHT22;1399;47.072;15.452;2022-12-01T07:48:41;10.00;59.20
2783;DHT22;1399;47.072;15.452;2022-12-01T07:51:09;10.00;59.30
2783;DHT22;1399;47.072;15.452;2022-12-01T07:53:35;10.00;59.30
2783;DHT22;1399;47.072;15.452;2022-12-01T07:56:02;10.00;59.30
2783;DHT22;1399;47.072;15.452;2022-12-01T07:58:30;10.00;59.20
2783;DHT22;1399;47.072;15.452;2022-12-01T08:00:56;9.90;60.00
2783;DHT22;1399;47.072;15.452;2022-12-01T08:03:23;10.00;59.20
2783;DHT22;1399;47.072;15.452;2022-12-01T08:06:00;10.00;59.20
2783;DHT22;1399;47.072;15.452;2022-12-01T08:08:26;10.00;59.20
2783;DHT22;1399;47.072;15.452;2022-12-01T08:10:52;10.00;59.10
2783;DHT22;1399;47.072;15.452;2022-12-01T08:13:19;10.00;59.10
2783;DHT22;1399;47.072;15.452;2022-12-01T08:15:45;10.00;59.00
2783;DHT22;1399;47.072;15.452;2022-12-01T08:18:11;10.00;58.90
2783;DHT22;1399;47.072;15.452;2022-12-01T08:20:37;10.00;58.80
2783;DHT22;1399;47.072;15.452;2022-12-01T08:23:02;10.00;58.70
2783;DHT22;1399;47.072;15.452;2022-12-01T08:25:29;10.00;58.70
2783;DHT22;1399;47.072;15.452;2022-12-01T08:27:55;10.00;58.70
2783;DHT22;1399;47.072;15.452;2022-12-01T08:30:21;10.00;58.70
2783;DHT22;1399;47.072;15.452;2022-12-01T08:32:47;10.00;58.60
2783;DHT22;1399;47.072;15.452;2022-12-01T08:35:13;10.00;58.70
2783;DHT22;1399;47.072;15.452;2022-12-01T08:37:39;10.00;58.60
2783;DHT22;1399;47.072;15.452;2022-12-01T08:40:06;10.00;58.60
2783;DHT22;1399;47.072;15.452;2022-12-01T08:42:32;10.00;58.60
2783;DHT22;1399;47.072;15.452;2022-12-01T08:44:57;10.00;58.60
2783;DHT22;1399;47.072;15.452;2022-12-01T08:47:23;10.00;58.60
2783;DHT22;1399;47.072;15.452;2022-12-01T08:49:49;10.00;58.60
2783;DHT22;1399;47.072;15.452;2022-12-01T08:52:15;10.00;58.60
2783;DHT22;1399;47.072;15.452;2022-12-01T08:54:40;10.00;58.70
2783;DHT22;1399;47.072;15.452;2022-12-01T08:57:06;10.00;58.60
2783;DHT22;1399;47.072;15.452;2022-12-01T08:59:32;10.00;58.70
2783;DHT22;1399;47.072;15.452;2022-12-01T09:01:57;10.00;58.70
2783;DHT22;1399;47.072;15.452;2022-12-01T09:04:25;10.00;58.70
2783;DHT22;1399;47.072;15.452;2022-12-01T09:06:52;10.10;58.70
2783;DHT22;1399;47.072;15.452;2022-12-01T09:09:23;10.10;58.70
2783;DHT22;1399;47.072;15.452;2022-12-01T09:11:50;10.10;58.70
2783;DHT22;1399;47.072;15.452;2022-12-01T09:14:17;10.10;58.70
2783;DHT22;1399;47.072;15.452;2022-12-01T09:16:45;10.10;58.70
2783;DHT22;1399;47.072;15.452;2022-12-01T09:19:13;10.10;58.70
2783;DHT22;1399;47.072;15.452;2022-12-01T09:21:39;10.10;58.60
2783;DHT22;1399;47.072;15.452;2022-12-01T09:24:16;10.10;58.60
2783;DHT22;1399;47.072;15.452;2022-12-01T09:26:42;10.20;58.50
2783;DHT22;1399;47.072;15.452;2022-12-01T09:29:10;10.20;58.50
2783;DHT22;1399;47.072;15.452;2022-12-01T09:31:39;10.20;58.50
2783;DHT22;1399;47.072;15.452;2022-12-01T09:34:08;10.20;58.60
2783;DHT22;1399;47.072;15.452;2022-12-01T09:36:35;10.20;58.50
2783;DHT22;1399;47.072;15.452;2022-12-01T09:39:02;10.20;58.50
2783;DHT22;1399;47.072;15.452;2022-12-01T09:41:33;10.20;58.40
2783;DHT22;1399;47.072;15.452;2022-12-01T09:52:14;10.20;58.50
2783;DHT22;1399;47.072;15.452;2022-12-01T09:54:40;10.20;58.60
2783;DHT22;1399;47.072;15.452;2022-12-01T09:57:23;10.20;58.70
2783;DHT22;1399;47.072;15.452;2022-12-01T09:59:52;10.20;58.60
2783;DHT22;1399;47.072;15.452;2022-12-01T10:02:32;10.20;58.50
2783;DHT22;1399;47.072;15.452;2022-12-01T10:05:03;10.20;58.50
2783;DHT22;1399;47.072;15.452;2022-12-01T10:07:34;10.20;58.60
2783;DHT22;1399;47.072;15.452;2022-12-01T10:10:09;10.20;58.60
2783;DHT22;1399;47.072;15.452;2022-12-01T10:12:35;10.20;58.70
2783;DHT22;1399;47.072;15.452;2022-12-01T10:15:24;10.20;58.60
2783;DHT22;1399;47.072;15.452;2022-12-01T10:23:42;10.20;58.70
2783;DHT22;1399;47.072;15.452;2022-12-01T10:26:20;10.20;58.70
2783;DHT22;1399;47.072;15.452;2022-12-01T10:29:10;10.20;58.50
2783;DHT22;1399;47.072;15.452;2022-12-01T10:31:56;10.20;58.50
2783;DHT22;1399;47.072;15.452;2022-12-01T10:34:32;10.20;58.60
2783;DHT22;1399;47.072;15.452;2022-12-01T10:36:59;10.30;58.70
2783;DHT22;1399;47.072;15.452;2022-12-01T10:39:32;10.30;58.60
2783;DHT22;1399;47.072;15.452;2022-12-01T10:44:33;10.30;58.50
2783;DHT22;1399;47.072;15.452;2022-12-01T10:47:01;10.30;58.40
2783;DHT22;1399;47.072;15.452;2022-12-01T10:49:36;10.30;58.40
2783;DHT22;1399;47.072;15.452;2022-12-01T10:52:02;10.30;58.30
2783;DHT22;1399;47.072;15.452;2022-12-01T10:54:37;10.30;58.30
2783;DHT22;1399;47.072;15.452;2022-12-01T10:57:05;10.30;58.30
2783;DHT22;1399;47.072;15.452;2022-12-01T11:00:05;10.30;58.30
2783;DHT22;1399;47.072;15.452;2022-12-01T11:02:30;10.30;58.50
2783;DHT22;1399;47.072;15.452;2022-12-01T11:05:21;10.30;58.30
2783;DHT22;1399;47.072;15.452;2022-12-01T11:07:49;10.30;58.20
2783;DHT22;1399;47.072;15.452;2022-12-01T11:12:57;10.30;58.20
2783;DHT22;1399;47.072;15.452;2022-12-01T11:15:32;10.30;58.20
2783;DHT22;1399;47.072;15.452;2022-12-01T11:18:18;10.30;58.30
2783;DHT22;1399;47.072;15.452;2022-12-01T11:20:45;10.30;58.40
2783;DHT22;1399;47.072;15.452;2022-12-01T11:26:11;10.30;58.30
2783;DHT22;1399;47.072;15.452;2022-12-01T11:28:54;10.30;58.20
2783;DHT22;1399;47.072;15.452;2022-12-01T11:31:35;10.30;58.10
2783;DHT22;1399;47.072;15.452;2022-12-01T11:34:02;10.30;58.20
2783;DHT22;1399;47.072;15.452;2022-12-01T11:36:38;10.30;58.20
2783;DHT22;1399;47.072;15.452;2022-12-01T11:39:36;10.30;58.20
2783;DHT22;1399;47.072;15.452;2022-12-01T11:42:06;10.30;58.10
2783;DHT22;1399;47.072;15.452;2022-12-01T11:44:39;10.30;58.10
2783;DHT22;1399;47.072;15.452;2022-12-01T11:47:14;10.30;58.20
2783;DHT22;1399;47.072;15.452;2022-12-01T11:49:43;10.30;58.20
2783;DHT22;1399;47.072;15.452;2022-12-01T11:52:34;10.30;58.30
2783;DHT22;1399;47.072;15.452;2022-12-01T11:55:24;10.40;58.40
2783;DHT22;1399;47.072;15.452;2022-12-01T11:58:00;10.30;58.30
2783;DHT22;1399;47.072;15.452;2022-12-01T12:00:42;10.40;58.40
2783;DHT22;1399;47.072;15.452;2022-12-01T12:03:19;10.30;58.30
2783;DHT22;1399;47.072;15.452;2022-12-01T12:11:22;10.40;58.20
2783;DHT22;1399;47.072;15.452;2022-12-01T12:25:01;10.40;58.40
2783;DHT22;1399;47.072;15.452;2022-12-01T12:27:44;10.40;58.40
2783;DHT22;1399;47.072;15.452;2022-12-01T12:30:21;10.40;58.30
2783;DHT22;1399;47.072;15.452;2022-12-01T12:36:04;10.40;58.30
2783;DHT22;1399;47.072;15.452;2022-12-01T12:42:03;10.40;58.40
2783;DHT22;1399;47.072;15.452;2022-12-01T12:44:50;10.40;58.50
2783;DHT22;1399;47.072;15.452;2022-12-01T12:50:36;10.40;58.50
2783;DHT22;1399;47.072;15.452;2022-12-01T12:53:11;10.40;58.50
2783;DHT22;1399;47.072;15.452;2022-12-01T12:55:42;10.40;58.70
2783;DHT22;1399;47.072;15.452;2022-12-01T12:58:33;10.40;58.80
2783;DHT22;1399;47.072;15.452;2022-12-01T13:01:08;10.40;58.70
2783;DHT22;1399;47.072;15.452;2022-12-01T13:06:25;10.40;58.80
2783;DHT22;1399;47.072;15.452;2022-12-01T13:14:49;10.40;58.80
2783;DHT22;1399;47.072;15.452;2022-12-01T13:17:27;10.40;58.80
2783;DHT22;1399;47.072;15.452;2022-12-01T13:19:55;10.40;58.80
2783;DHT22;1399;47.072;15.452;2022-12-01T13:22:28;10.40;58.90
2783;DHT22;1399;47.072;15.452;2022-12-01T13:24:54;10.40;58.90
2783;DHT22;1399;47.072;15.452;2022-12-01T13:27:24;10.40;58.90
2783;DHT22;1399;47.072;15.452;2022-12-01T13:29:52;10.40;58.90
2783;DHT22;1399;47.072;15.452;2022-12-01T13:32:32;10.40;58.90
2783;DHT22;1399;47.072;15.452;2022-12-01T13:35:00;10.40;59.00
2783;DHT22;1399;47.072;15.452;2022-12-01T13:37:32;10.40;59.50
2783;DHT22;1399;47.072;15.452;2022-12-01T13:45:19;10.40;59.40
2783;DHT22;1399;47.072;15.452;2022-12-01T13:56:23;10.30;59.10
2783;DHT22;1399;47.072;15.452;2022-12-01T13:58:51;10.30;59.20
2783;DHT22;1399;47.072;15.452;2022-12-01T14:06:45;10.30;59.20
2783;DHT22;1399;47.072;15.452;2022-12-01T14:09:34;10.30;59.30
2783;DHT22;1399;47.072;15.452;2022-12-01T14:14:41;10.30;59.30
2783;DHT22;1399;47.072;15.452;2022-12-01T14:17:33;10.30;59.20
2783;DHT22;1399;47.072;15.452;2022-12-01T14:23:03;10.30;59.10
2783;DHT22;1399;47.072;15.452;2022-12-01T14:25:29;10.30;59.30
2783;DHT22;1399;47.072;15.452;2022-12-01T14:28:03;10.30;59.30
2783;DHT22;1399;47.072;15.452;2022-12-01T14:39:10;10.30;59.30
2783;DHT22;1399;47.072;15.452;2022-12-01T14:44:14;10.30;59.50
2783;DHT22;1399;47.072;15.452;2022-12-01T14:47:21;10.30;59.50
2783;DHT22;1399;47.072;15.452;2022-12-01T14:50:01;10.30;59.50
2783;DHT22;1399;47.072;15.452;2022-12-01T14:54:57;10.20;59.30
2783;DHT22;1399;47.072;15.452;2022-12-01T14:57:31;10.20;59.30
2783;DHT22;1399;47.072;15.452;2022-12-01T15:00:10;10.20;59.40
2783;DHT22;1399;47.072;15.452;2022-12-01T15:05:20;10.20;59.50
2783;DHT22;1399;47.072;15.452;2022-12-01T15:07:48;10.20;59.50
2783;DHT22;1399;47.072;15.452;2022-12-01T15:12:46;10.20;59.60
2783;DHT22;1399;47.072;15.452;2022-12-01T15:15:24;10.20;59.50
2783;DHT22;1399;47.072;15.452;2022-12-01T15:17:51;10.20;59.60
2783;DHT22;1399;47.072;15.452;2022-12-01T15:20:35;10.20;59.60
2783;DHT22;1399;47.072;15.452;2022-12-01T15:23:15;10.20;59.60
2783;DHT22;1399;47.072;15.452;2022-12-01T15:25:44;10.20;59.60
2783;DHT22;1399;47.072;15.452;2022-12-01T15:28:21;10.20;59.70
2783;DHT22;1399;47.072;15.452;2022-12-01T15:30:54;10.20;59.90
2783;DHT22;1399;47.072;15.452;2022-12-01T15:33:26;10.20;59.80
2783;DHT22;1399;47.072;15.452;2022-12-01T15:35:53;10.20;59.90
2783;DHT22;1399;47.072;15.452;2022-12-01T15:38:26;10.20;60.00
2783;DHT22;1399;47.072;15.452;2022-12-01T15:40:54;10.20;60.00
2783;DHT22;1399;47.072;15.452;2022-12-01T15:43:25;10.20;60.10
2783;DHT22;1399;47.072;15.452;2022-12-01T15:46:00;10.10;60.00
2783;DHT22;1399;47.072;15.452;2022-12-01T15:48:33;10.20;60.20
2783;DHT22;1399;47.072;15.452;2022-12-01T15:53:48;10.20;60.30
2783;DHT22;1399;47.072;15.452;2022-12-01T15:56:15;10.20;60.50
2783;DHT22;1399;47.072;15.452;2022-12-01T15:58:44;10.20;60.50
2783;DHT22;1399;47.072;15.452;2022-12-01T16:01:15;10.20;60.50
2783;DHT22;1399;47.072;15.452;2022-12-01T16:03:58;10.20;60.50
2783;DHT22;1399;47.072;15.452;2022-12-01T16:06:35;10.20;60.50
2783;DHT22;1399;47.072;15.452;2022-12-01T16:15:32;10.20;60.60
2783;DHT22;1399;47.072;15.452;2022-12-01T16:17:48;10.20;60.60
2783;DHT22;1399;47.072;15.452;2022-12-01T16:22:48;10.20;60.70
2783;DHT22;1399;47.072;15.452;2022-12-01T16:27:58;10.10;60.60
2783;DHT22;1399;47.072;15.452;2022-12-01T16:30:33;10.20;60.60
2783;DHT22;1399;47.072;15.452;2022-12-01T16:33:20;10.20;60.70
2783;DHT22;1399;47.072;15.452;2022-12-01T16:35:48;10.20;60.70
2783;DHT22;1399;47.072;15.452;2022-12-01T16:38:22;10.10;60.40
2783;DHT22;1399;47.072;15.452;2022-12-01T16:41:00;10.20;60.50
2783;DHT22;1399;47.072;15.452;2022-12-01T16:43:27;10.10;60.30
2783;DHT22;1399;47.072;15.452;2022-12-01T16:45:59;10.10;60.30
2783;DHT22;1399;47.072;15.452;2022-12-01T16:48:26;10.10;60.30
2783;DHT22;1399;47.072;15.452;2022-12-01T16:50:52;10.10;60.40
2783;DHT22;1399;47.072;15.452;2022-12-01T16:53:18;10.10;60.50
2783;DHT22;1399;47.072;15.452;2022-12-01T16:55:53;10.10;60.50
2783;DHT22;1399;47.072;15.452;2022-12-01T16:58:20;10.20;60.60
2783;DHT22;1399;47.072;15.452;2022-12-01T17:00:46;10.10;60.50
2783;DHT22;1399;47.072;15.452;2022-12-01T17:03:20;10.10;60.40
2783;DHT22;1399;47.072;15.452;2022-12-01T17:05:46;10.10;60.40
2783;DHT22;1399;47.072;15.452;2022-12-01T17:08:13;10.10;60.40
2783;DHT22;1399;47.072;15.452;2022-12-01T17:10:44;10.10;60.40
2783;DHT22;1399;47.072;15.452;2022-12-01T17:13:12;10.10;60.50
2783;DHT22;1399;47.072;15.452;2022-12-01T17:15:43;10.10;60.40
2783;DHT22;1399;47.072;15.452;2022-12-01T17:18:10;10.10;60.40
2783;DHT22;1399;47.072;15.452;2022-12-01T17:20:37;10.10;60.40
2783;DHT22;1399;47.072;15.452;2022-12-01T17:23:03;10.20;60.50
2783;DHT22;1399;47.072;15.452;2022-12-01T17:25:30;10.20;60.70
2783;DHT22;1399;47.072;15.452;2022-12-01T17:27:56;10.20;60.70
2783;DHT22;1399;47.072;15.452;2022-12-01T17:30:22;10.20;60.70
2783;DHT22;1399;47.072;15.452;2022-12-01T17:32:48;10.20;60.60
2783;DHT22;1399;47.072;15.452;2022-12-01T17:35:14;10.20;60.50
2783;DHT22;1399;47.072;15.452;2022-12-01T17:37:41;10.20;60.50
2783;DHT22;1399;47.072;15.452;2022-12-01T17:40:09;10.20;60.60
2783;DHT22;1399;47.072;15.452;2022-12-01T17:42:35;10.20;60.70
2783;DHT22;1399;47.072;15.452;2022-12-01T17:45:01;10.20;60.50
2783;DHT22;1399;47.072;15.452;2022-12-01T17:47:27;10.20;60.50
2783;DHT22;1399;47.072;15.452;2022-12-01T17:49:53;10.20;60.60
2783;DHT22;1399;47.072;15.452;2022-12-01T17:52:19;10.20;60.50
2783;DHT22;1399;47.072;15.452;2022-12-01T17:54:45;10.10;60.40
2783;DHT22;1399;47.072;15.452;2022-12-01T17:57:11;10.20;60.50
2783;DHT22;1399;47.072;15.452;2022-12-01T17:59:38;10.20;60.50
2783;DHT22;1399;47.072;15.452;2022-12-01T18:02:09;10.10;60.40
2783;DHT22;1399;47.072;15.452;2022-12-01T18:04:36;10.10;60.30
2783;DHT22;1399;47.072;15.452;2022-12-01T18:07:02;10.10;60.20
2783;DHT22;1399;47.072;15.452;2022-12-01T18:09:28;10.10;60.30
2783;DHT22;1399;47.072;15.452;2022-12-01T18:11:55;10.10;60.30
2783;DHT22;1399;47.072;15.452;2022-12-01T18:14:22;10.10;60.30
2783;DHT22;1399;47.072;15.452;2022-12-01T18:16:48;10.10;60.20
2783;DHT22;1399;47.072;15.452;2022-12-01T18:19:14;10.10;60.20
2783;DHT22;1399;47.072;15.452;2022-12-01T18:21:41;10.10;60.20
2783;DHT22;1399;47.072;15.452;2022-12-01T18:24:07;10.10;60.30
2783;DHT22;1399;47.072;15.452;2022-12-01T18:26:35;10.10;60.20
2783;DHT22;1399;47.072;15.452;2022-12-01T18:29:09;10.10;60.30
2783;DHT22;1399;47.072;15.452;2022-12-01T18:31:37;10.10;60.30
2783;DHT22;1399;47.072;15.452;2022-12-01T18:34:03;10.10;60.30